createdAt,value
2022-10-25T00:01:26.265Z,99.02
2022-10-25T00:03:30.682Z,98.98
2022-10-25T00:05:33.725Z,98.77
2022-10-25T00:07:36.741Z,99.08
2022-10-25T00:09:39.678Z,100.00
2022-10-25T00:11:43.334Z,99.28
2022-10-25T00:13:46.354Z,100.00
2022-10-25T00:15:49.588Z,99.77
2022-10-25T00:17:52.871Z,98.88
2022-10-25T00:19:57.203Z,99.08
2022-10-25T00:22:00.547Z,100.00
2022-10-25T00:24:04.787Z,100.00
2022-10-25T00:26:09.279Z,100.00
2022-10-25T00:28:12.489Z,100.00
2022-10-25T00:30:16.045Z,99.35
2022-10-25T00:32:19.049Z,99.95
2022-10-25T00:34:22.106Z,99.58
2022-10-25T00:36:27.784Z,98.70
2022-10-25T00:38:31.591Z,98.38
2022-10-25T00:40:35.138Z,99.07
2022-10-25T00:42:38.171Z,99.11
2022-10-25T00:44:53.540Z,98.18
2022-10-25T00:46:56.738Z,99.41
2022-10-25T00:49:03.540Z,99.82
2022-10-25T00:51:07.076Z,100.00
2022-10-25T00:53:15.174Z,100.00
2022-10-25T00:55:20.429Z,100.00
2022-10-25T00:57:27.408Z,99.49
2022-10-25T00:59:30.857Z,99.03
2022-10-25T01:01:34.113Z,99.07
2022-10-25T01:03:38.481Z,99.61
2022-10-25T01:05:41.772Z,98.98
2022-10-25T01:07:45.750Z,98.95
2022-10-25T01:09:51.210Z,99.27
2022-10-25T01:11:54.461Z,100.00
2022-10-25T01:13:57.754Z,98.89
2022-10-25T01:16:06.989Z,99.39
2022-10-25T01:18:15.595Z,99.80
2022-10-25T01:20:48.755Z,99.54
2022-10-25T01:22:55.546Z,99.27
2022-10-25T01:25:25.396Z,100.00
2022-10-25T01:27:47.149Z,100.00
2022-10-25T01:30:14.592Z,99.82
2022-10-25T01:32:22.401Z,99.89
2022-10-25T01:34:28.002Z,100.00
2022-10-25T01:36:38.138Z,100.00
2022-10-25T01:38:45.901Z,100.00
2022-10-25T01:40:54.159Z,100.00
2022-10-25T01:43:02.264Z,100.00
2022-10-25T01:45:09.915Z,99.46
2022-10-25T01:47:15.122Z,98.42
2022-10-25T01:49:24.998Z,98.50
2022-10-25T01:51:29.020Z,98.33
2022-10-25T01:53:32.027Z,99.02
2022-10-25T01:55:41.393Z,99.83
2022-10-25T01:57:59.684Z,100.00
2022-10-25T02:00:09.299Z,100.00
2022-10-25T02:02:23.669Z,99.64
2022-10-25T02:04:34.920Z,99.84
2022-10-25T02:06:44.093Z,100.00
2022-10-25T02:08:49.634Z,100.00
2022-10-25T02:10:57.066Z,100.00
2022-10-25T02:13:03.953Z,100.00
2022-10-25T02:15:11.315Z,100.00
2022-10-25T02:17:18.781Z,100.00
2022-10-25T02:19:25.132Z,100.00
2022-10-25T02:21:32.024Z,100.00
2022-10-25T02:23:35.923Z,100.00
2022-10-25T02:25:41.919Z,100.00
2022-10-25T02:27:46.021Z,100.00
2022-10-25T02:29:49.685Z,100.00
2022-10-25T02:31:52.831Z,100.00
2022-10-25T02:33:56.106Z,100.00
2022-10-25T02:36:09.818Z,100.00
2022-10-25T02:38:14.102Z,100.00
2022-10-25T02:40:17.303Z,100.00
2022-10-25T02:46:15.515Z,99.33
2022-10-25T02:48:18.593Z,100.00
2022-10-25T02:50:21.557Z,99.40
2022-10-25T02:52:24.568Z,99.97
2022-10-25T02:54:28.977Z,99.72
2022-10-25T02:56:32.022Z,99.66
2022-10-25T02:58:38.080Z,100.00
2022-10-25T03:00:41.267Z,100.00
2022-10-25T03:02:44.634Z,98.72
2022-10-25T03:04:47.979Z,100.00
2022-10-25T03:06:50.982Z,99.36
2022-10-25T03:08:54.023Z,100.00
2022-10-25T03:10:58.532Z,100.00
2022-10-25T03:13:01.624Z,99.24
2022-10-25T03:15:05.027Z,99.36
2022-10-25T03:17:08.151Z,100.00
2022-10-25T03:19:11.191Z,100.00
2022-10-25T03:21:14.167Z,100.00
2022-10-25T03:23:17.779Z,99.97
2022-10-25T03:25:20.858Z,100.00
2022-10-25T03:27:25.245Z,100.00
2022-10-25T03:29:28.423Z,100.00
2022-10-25T03:31:31.414Z,100.00
2022-10-25T03:33:34.404Z,100.00
2022-10-25T03:35:37.592Z,100.00
2022-10-25T03:37:40.605Z,100.00
2022-10-25T03:39:43.571Z,100.00
2022-10-25T03:41:46.508Z,100.00
2022-10-25T03:43:50.885Z,100.00
2022-10-25T03:45:53.851Z,100.00
2022-10-25T03:47:56.869Z,100.00
2022-10-25T03:49:59.851Z,100.00
2022-10-25T03:52:05.084Z,100.00
2022-10-25T03:54:08.188Z,100.00
2022-10-25T03:56:11.214Z,100.00
2022-10-25T03:58:14.242Z,100.00
2022-10-25T04:00:18.875Z,100.00
2022-10-25T04:02:21.915Z,100.00
2022-10-25T04:04:24.943Z,100.00
2022-10-25T04:06:27.906Z,100.00
2022-10-25T04:08:30.917Z,100.00
2022-10-25T04:10:34.011Z,100.00
2022-10-25T04:12:37.037Z,100.00
2022-10-25T04:14:40.102Z,100.00
2022-10-25T04:16:44.493Z,99.78
2022-10-25T04:18:47.709Z,100.00
2022-10-25T04:20:50.659Z,100.00
2022-10-25T04:22:57.225Z,100.00
2022-10-25T04:25:00.236Z,100.00
2022-10-25T04:27:03.350Z,100.00
2022-10-25T04:29:13.538Z,99.57
2022-10-25T04:31:16.870Z,100.00
2022-10-25T04:33:21.710Z,99.99
2022-10-25T04:35:27.602Z,100.00
2022-10-25T04:37:30.693Z,100.00
2022-10-25T04:39:33.642Z,100.00
2022-10-25T04:41:36.670Z,99.25
2022-10-25T04:43:39.703Z,100.00
2022-10-25T04:45:42.749Z,100.00
2022-10-25T04:47:45.751Z,100.00
2022-10-25T04:49:50.082Z,100.00
2022-10-25T04:51:52.974Z,100.00
2022-10-25T04:53:56.194Z,100.00
2022-10-25T04:55:59.681Z,100.00
2022-10-25T04:58:02.628Z,99.61
2022-10-25T05:00:06.354Z,100.00
2022-10-25T05:02:09.356Z,99.90
2022-10-25T05:04:12.343Z,99.46
2022-10-25T05:06:19.083Z,100.00
2022-10-25T05:08:22.105Z,98.69
2022-10-25T05:10:25.205Z,100.00
2022-10-25T05:12:28.224Z,99.22
2022-10-25T05:14:31.215Z,100.00
2022-10-25T05:16:35.185Z,100.00
2022-10-25T05:18:38.193Z,100.00
2022-10-25T05:20:41.244Z,100.00
2022-10-25T05:22:46.017Z,99.43
2022-10-25T05:24:49.175Z,99.54
2022-10-25T05:26:52.175Z,99.63
2022-10-25T05:28:56.893Z,100.00
2022-10-25T05:31:04.221Z,99.53
2022-10-25T05:33:07.236Z,98.71
2022-10-25T05:35:10.375Z,99.97
2022-10-25T05:37:13.326Z,99.49
2022-10-25T05:39:17.765Z,99.47
2022-10-25T05:41:20.767Z,99.77
2022-10-25T05:43:23.958Z,100.00
2022-10-25T05:45:27.005Z,99.84
2022-10-25T05:47:30.041Z,99.81
2022-10-25T05:49:34.172Z,98.66
2022-10-25T05:51:37.683Z,100.00
2022-10-25T05:53:44.467Z,99.96
2022-10-25T05:55:48.789Z,98.83
2022-10-25T05:57:52.680Z,99.04
2022-10-25T05:59:55.892Z,99.06
2022-10-25T06:01:59.018Z,98.73
2022-10-25T06:04:02.080Z,98.50
2022-10-25T06:06:06.919Z,99.25
2022-10-25T06:08:09.916Z,99.80
2022-10-25T06:10:12.851Z,99.42
2022-10-25T06:12:17.197Z,99.43
2022-10-25T06:14:20.171Z,100.00
2022-10-25T06:16:23.576Z,100.00
2022-10-25T06:18:26.542Z,99.99
2022-10-25T06:20:29.671Z,99.46
2022-10-25T06:22:32.772Z,99.36
2022-10-25T06:24:35.855Z,98.95
2022-10-25T06:26:38.921Z,99.94
2022-10-25T06:28:43.623Z,99.05
2022-10-25T06:30:46.542Z,99.85
2022-10-25T06:32:49.847Z,99.92
2022-10-25T06:34:52.993Z,100.00
2022-10-25T06:36:55.916Z,100.00
2022-10-25T06:39:05.269Z,100.00
2022-10-25T06:41:13.723Z,100.00
2022-10-25T06:43:16.696Z,99.66
2022-10-25T06:45:21.023Z,100.00
2022-10-25T06:47:24.025Z,100.00
2022-10-25T06:49:30.580Z,99.76
2022-10-25T06:51:34.445Z,100.00
2022-10-25T06:53:37.872Z,100.00
2022-10-25T06:55:42.369Z,100.00
2022-10-25T06:57:45.437Z,100.00
2022-10-25T06:59:48.537Z,99.73
2022-10-25T07:01:53.456Z,100.00
2022-10-25T07:03:56.715Z,100.00
2022-10-25T07:06:00.650Z,99.65
2022-10-25T07:08:03.743Z,99.39
2022-10-25T07:10:07.367Z,98.87
2022-10-25T07:12:12.721Z,98.22
2022-10-25T07:14:16.081Z,97.90
2022-10-25T07:16:20.875Z,99.04
2022-10-25T07:18:25.367Z,99.49
2022-10-25T07:20:30.955Z,99.94
2022-10-25T07:22:34.143Z,100.00
2022-10-25T07:24:37.141Z,99.62
2022-10-25T07:26:41.787Z,100.00
2022-10-25T07:28:46.318Z,99.10
2022-10-25T07:30:49.550Z,98.32
2022-10-25T07:32:52.618Z,98.95
2022-10-25T07:37:00.983Z,97.32
2022-10-25T07:39:04.281Z,97.89
2022-10-25T07:41:07.778Z,97.47
2022-10-25T07:43:11.162Z,97.09
2022-10-25T07:45:16.231Z,96.57
2022-10-25T07:47:21.846Z,95.89
2022-10-25T07:49:24.974Z,96.35
2022-10-25T07:51:29.579Z,97.40
2022-10-25T07:53:32.618Z,96.74
2022-10-25T07:55:35.642Z,97.76
2022-10-25T07:57:38.797Z,97.73
2022-10-25T07:59:41.755Z,96.75
2022-10-25T08:01:44.813Z,99.06
2022-10-25T08:03:47.952Z,98.18
2022-10-25T08:05:50.957Z,96.39
2022-10-25T08:07:55.256Z,96.66
2022-10-25T08:09:58.262Z,98.68
2022-10-25T08:12:01.239Z,98.76
2022-10-25T08:14:04.276Z,96.34
2022-10-25T08:16:11.240Z,98.35
2022-10-25T08:18:14.231Z,97.61
2022-10-25T08:20:17.363Z,97.28
2022-10-25T08:22:20.406Z,96.04
2022-10-25T08:24:24.814Z,96.28
2022-10-25T08:26:30.145Z,94.82
2022-10-25T08:28:35.298Z,96.52
2022-10-25T08:30:38.278Z,95.00
2022-10-25T08:32:41.320Z,94.17
2022-10-25T08:34:44.365Z,94.76
2022-10-25T08:36:49.674Z,95.30
2022-10-25T08:38:52.689Z,95.58
2022-10-25T08:41:03.261Z,95.42
2022-10-25T08:43:11.175Z,96.17
2022-10-25T08:45:19.885Z,94.72
2022-10-25T08:47:27.110Z,93.96
2022-10-25T08:49:34.647Z,94.48
2022-10-25T08:51:39.842Z,93.66
2022-10-25T08:53:47.813Z,92.66
2022-10-25T08:56:15.264Z,93.49
2022-10-25T08:58:18.698Z,92.35
2022-10-25T09:00:24.204Z,92.17
2022-10-25T09:02:34.653Z,92.68
2022-10-25T09:04:37.823Z,92.43
2022-10-25T09:06:43.275Z,92.52
2022-10-25T09:08:59.622Z,93.10
2022-10-25T09:11:07.933Z,93.58
2022-10-25T09:13:19.286Z,91.38
2022-10-25T09:15:33.306Z,91.67
2022-10-25T09:17:43.039Z,90.73
2022-10-25T09:19:57.858Z,90.83
2022-10-25T09:22:02.290Z,89.58
2022-10-25T09:24:11.712Z,90.43
2022-10-25T09:26:19.265Z,90.68
2022-10-25T09:28:26.777Z,90.90
2022-10-25T09:30:31.745Z,91.58
2022-10-25T09:32:38.791Z,91.10
2022-10-25T09:34:41.912Z,91.56
2022-10-25T09:36:47.012Z,90.89
2022-10-25T09:38:53.219Z,91.97
2022-10-25T09:40:58.925Z,89.81
2022-10-25T09:45:24.142Z,88.09
2022-10-25T09:47:41.453Z,89.05
2022-10-25T09:49:52.097Z,88.96
2022-10-25T09:52:00.703Z,90.36
2022-10-25T09:54:11.941Z,89.80
2022-10-25T09:56:17.201Z,90.37
2022-10-25T09:58:22.165Z,89.64
2022-10-25T10:00:26.849Z,90.13
2022-10-25T10:02:29.876Z,88.80
2022-10-25T10:04:36.273Z,86.58
2022-10-25T10:06:40.920Z,87.75
2022-10-25T10:08:49.080Z,88.99
2022-10-25T10:10:57.398Z,87.30
2022-10-25T10:13:05.020Z,86.70
2022-10-25T10:15:14.145Z,86.27
2022-10-25T10:17:21.291Z,87.63
2022-10-25T10:19:29.936Z,87.93
2022-10-25T10:21:42.960Z,87.33
2022-10-25T10:23:50.703Z,87.38
2022-10-25T10:25:53.878Z,87.15
2022-10-25T10:27:58.186Z,86.55
2022-10-25T10:30:03.240Z,84.63
2022-10-25T10:32:10.180Z,85.54
2022-10-25T10:34:28.532Z,85.54
2022-10-25T10:36:33.584Z,87.20
2022-10-25T10:38:39.361Z,85.55
2022-10-25T10:40:44.001Z,85.43
2022-10-25T10:42:49.886Z,86.16
2022-10-25T10:45:16.614Z,85.18
2022-10-25T10:47:22.538Z,85.63
2022-10-25T10:49:36.143Z,86.17
2022-10-25T10:51:45.031Z,86.01
2022-10-25T10:53:48.456Z,85.58
2022-10-25T10:55:52.936Z,85.66
2022-10-25T10:57:57.377Z,86.47
2022-10-25T11:00:01.488Z,86.34
2022-10-25T11:02:24.117Z,85.11
2022-10-25T11:04:28.704Z,85.23
2022-10-25T11:06:33.254Z,85.60
2022-10-25T11:08:36.240Z,86.99
2022-10-25T11:10:40.224Z,86.54
2022-10-25T11:12:43.738Z,86.01
2022-10-25T11:14:46.840Z,85.76
2022-10-25T11:16:54.533Z,84.97
2022-10-25T11:19:10.134Z,83.56
2022-10-25T11:21:22.504Z,84.91
2022-10-25T11:23:28.914Z,83.35
2022-10-25T11:25:35.299Z,84.26
2022-10-25T11:27:48.156Z,85.34
2022-10-25T11:30:01.121Z,85.75
2022-10-25T11:32:18.736Z,85.47
2022-10-25T11:34:27.124Z,84.40
2022-10-25T11:36:52.676Z,85.32
2022-10-25T11:39:04.445Z,86.34
2022-10-25T11:41:17.369Z,86.74
2022-10-25T11:43:35.357Z,85.00
2022-10-25T11:45:42.610Z,85.05
2022-10-25T11:47:52.780Z,82.58
2022-10-25T11:50:02.351Z,82.75
2022-10-25T11:52:28.545Z,83.24
2022-10-25T11:54:36.786Z,84.40
2022-10-25T11:56:45.951Z,84.20
2022-10-25T11:58:55.259Z,83.40
2022-10-25T12:01:04.204Z,84.93
2022-10-25T12:03:20.533Z,85.26
2022-10-25T12:05:30.749Z,83.59
2022-10-25T12:07:38.606Z,83.53
2022-10-25T12:09:47.767Z,82.76
2022-10-25T12:12:01.675Z,82.34
2022-10-25T12:14:07.307Z,82.20
2022-10-25T12:16:12.323Z,82.50
2022-10-25T12:18:20.582Z,82.97
2022-10-25T12:20:27.892Z,83.86
2022-10-25T12:22:38.216Z,83.81
2022-10-25T12:24:46.466Z,83.64
2022-10-25T12:26:50.987Z,85.00
2022-10-25T12:28:54.123Z,85.93
2022-10-25T12:31:01.004Z,86.41
2022-10-25T12:33:12.205Z,86.26
2022-10-25T12:35:21.516Z,85.89
2022-10-25T12:37:29.849Z,85.64
2022-10-25T12:39:40.639Z,86.87
2022-10-25T12:41:45.080Z,85.36
2022-10-25T12:44:00.226Z,84.26
2022-10-25T12:46:37.003Z,83.95
2022-10-25T12:49:03.170Z,83.43
2022-10-25T12:51:19.122Z,83.59
2022-10-25T12:53:46.701Z,81.65
2022-10-25T12:55:57.047Z,81.18
2022-10-25T12:58:09.867Z,82.04
2022-10-25T13:00:14.842Z,81.91
2022-10-25T13:02:55.458Z,82.00
2022-10-25T13:05:24.236Z,81.69
2022-10-25T13:07:27.764Z,83.05
2022-10-25T13:09:33.070Z,81.74
2022-10-25T13:11:39.586Z,82.25
2022-10-25T13:13:48.790Z,81.43
2022-10-25T13:15:52.824Z,82.37
2022-10-25T13:18:05.726Z,81.80
2022-10-25T13:20:46.398Z,80.60
2022-10-25T13:22:52.396Z,81.69
2022-10-25T13:24:56.003Z,81.71
2022-10-25T13:27:22.125Z,80.82
2022-10-25T13:29:50.211Z,82.20
2022-10-25T13:31:59.880Z,81.65
2022-10-25T13:34:30.899Z,81.26
2022-10-25T13:36:47.491Z,81.56
2022-10-25T13:39:04.541Z,81.61
2022-10-25T13:41:13.482Z,81.25
2022-10-25T13:43:20.697Z,81.26
2022-10-25T13:45:33.393Z,80.57
2022-10-25T13:47:39.010Z,79.85
2022-10-25T13:49:43.824Z,81.02
2022-10-25T13:51:47.200Z,80.57
2022-10-25T13:53:52.680Z,81.79
2022-10-25T13:56:01.146Z,80.55
2022-10-25T13:58:57.423Z,80.96
2022-10-25T14:01:55.940Z,80.35
2022-10-25T14:04:08.712Z,81.58
2022-10-25T14:06:23.801Z,80.49
2022-10-25T14:08:28.940Z,80.42
2022-10-25T14:10:36.476Z,80.89
2022-10-25T14:12:41.089Z,80.25
2022-10-25T14:14:48.383Z,79.50
2022-10-25T14:17:10.450Z,79.49
2022-10-25T14:19:16.657Z,80.59
2022-10-25T14:21:20.552Z,81.06
2022-10-25T14:23:25.367Z,82.17
2022-10-25T14:25:34.301Z,80.85
2022-10-25T14:27:38.380Z,81.36
2022-10-25T14:29:41.362Z,81.57
2022-10-25T14:31:44.523Z,80.54
2022-10-25T14:33:53.636Z,80.68
2022-10-25T14:35:58.576Z,81.15
2022-10-25T14:38:01.972Z,81.01
2022-10-25T14:40:16.427Z,79.60
2022-10-25T14:42:19.545Z,81.13
2022-10-25T14:44:25.337Z,80.57
2022-10-25T14:46:30.269Z,80.37
2022-10-25T14:48:33.679Z,80.29
2022-10-25T14:50:39.915Z,80.56
2022-10-25T14:52:45.025Z,80.17
2022-10-25T14:54:54.750Z,81.50
2022-10-25T14:57:00.010Z,80.84
2022-10-25T14:59:04.238Z,80.30
2022-10-25T15:01:07.969Z,81.31
2022-10-25T15:03:12.662Z,82.19
2022-10-25T15:05:20.222Z,82.64
2022-10-25T15:07:29.094Z,82.96
2022-10-25T15:09:48.699Z,82.56
2022-10-25T15:12:06.828Z,82.18
2022-10-25T15:14:17.006Z,81.46
2022-10-25T15:16:32.341Z,82.12
2022-10-25T15:18:38.154Z,82.18
2022-10-25T15:20:41.576Z,82.21
2022-10-25T15:22:48.155Z,83.59
2022-10-25T15:24:51.440Z,82.70
2022-10-25T15:26:59.481Z,84.44
2022-10-25T15:29:02.952Z,84.75
2022-10-25T15:31:07.883Z,85.42
2022-10-25T15:33:14.638Z,85.68
2022-10-25T15:35:23.474Z,85.28
2022-10-25T15:37:27.789Z,85.70
2022-10-25T15:39:32.942Z,86.36
2022-10-25T15:41:36.553Z,86.91
2022-10-25T15:43:39.584Z,86.80
2022-10-25T15:45:42.897Z,87.61
2022-10-25T15:47:47.337Z,87.97
2022-10-25T15:49:52.676Z,88.14
2022-10-25T15:51:56.959Z,86.65
2022-10-25T15:54:00.220Z,87.48
2022-10-25T15:56:04.871Z,86.34
2022-10-25T15:58:09.898Z,86.06
2022-10-25T16:00:15.650Z,86.72
2022-10-25T16:02:22.026Z,86.94
2022-10-25T16:04:25.093Z,86.62
2022-10-25T16:06:28.069Z,87.21
2022-10-25T16:08:31.442Z,87.80
2022-10-25T16:10:34.825Z,88.42
2022-10-25T16:12:39.599Z,88.95
2022-10-25T16:14:42.700Z,89.25
2022-10-25T16:16:46.071Z,89.48
2022-10-25T16:18:49.094Z,89.57
2022-10-25T16:20:52.998Z,89.73
2022-10-25T16:22:56.783Z,90.44
2022-10-25T16:24:59.827Z,90.77
2022-10-25T16:27:02.975Z,90.59
2022-10-25T16:29:07.476Z,91.01
2022-10-25T16:31:10.430Z,91.49
2022-10-25T16:33:13.545Z,90.80
2022-10-25T16:35:18.787Z,91.23
2022-10-25T16:37:21.997Z,91.23
2022-10-25T16:39:25.052Z,91.29
2022-10-25T16:41:29.835Z,90.77
2022-10-25T16:43:33.820Z,90.83
2022-10-25T16:45:38.561Z,92.20
2022-10-25T16:47:41.685Z,92.91
2022-10-25T16:49:44.777Z,92.98
2022-10-25T16:51:48.782Z,92.39
2022-10-25T16:53:52.045Z,93.65
2022-10-25T16:55:56.105Z,92.65
2022-10-25T16:57:59.663Z,93.26
2022-10-25T17:00:02.763Z,94.23
2022-10-25T17:02:10.889Z,95.39
2022-10-25T17:04:14.498Z,95.25
2022-10-25T17:06:39.734Z,94.84
2022-10-25T17:08:40.922Z,94.98
2022-10-25T17:10:46.066Z,95.80
2022-10-25T17:12:50.665Z,95.05
2022-10-25T17:14:53.987Z,94.71
2022-10-25T17:17:02.232Z,94.26
2022-10-25T17:19:07.681Z,94.00
2022-10-25T17:21:12.745Z,96.22
2022-10-25T17:23:15.675Z,95.17
2022-10-25T17:25:18.694Z,96.30
2022-10-25T17:27:21.711Z,97.07
2022-10-25T17:29:24.738Z,95.58
2022-10-25T17:31:28.272Z,95.17
2022-10-25T17:33:32.726Z,96.13
2022-10-25T17:35:41.999Z,97.83
2022-10-25T17:37:47.130Z,97.24
2022-10-25T17:39:50.494Z,95.64
2022-10-25T17:41:53.503Z,95.99
2022-10-25T17:43:57.180Z,97.44
2022-10-25T17:46:01.244Z,96.13
2022-10-25T17:48:04.864Z,98.12
2022-10-25T17:50:08.405Z,96.63
2022-10-25T17:52:13.232Z,97.23
2022-10-25T17:54:16.968Z,98.09
2022-10-25T17:56:20.579Z,96.91
2022-10-25T17:58:24.050Z,96.88
2022-10-25T18:00:27.094Z,96.34
2022-10-25T18:02:30.232Z,96.30
2022-10-25T18:04:52.967Z,96.49
2022-10-25T18:06:56.524Z,96.75
2022-10-25T18:09:02.926Z,96.59
2022-10-25T18:11:09.746Z,98.01
2022-10-25T18:13:12.729Z,97.99
2022-10-25T18:15:15.971Z,98.18
2022-10-25T18:17:18.975Z,97.29
2022-10-25T18:19:22.709Z,95.70
2022-10-25T18:21:25.886Z,97.85
2022-10-25T18:23:28.885Z,97.55
2022-10-25T18:25:33.323Z,98.57
2022-10-25T18:27:36.393Z,98.45
2022-10-25T18:29:39.953Z,98.22
2022-10-25T18:31:42.967Z,97.72
2022-10-25T18:33:46.237Z,97.54
2022-10-25T18:35:49.320Z,97.12
2022-10-25T18:37:52.402Z,97.18
2022-10-25T18:39:55.529Z,98.41
2022-10-25T18:41:59.958Z,98.59
2022-10-25T18:44:03.482Z,97.71
2022-10-25T18:46:06.820Z,98.61
2022-10-25T18:48:09.847Z,98.32
2022-10-25T18:50:12.876Z,98.25
2022-10-25T18:52:15.964Z,98.08
2022-10-25T18:54:19.468Z,97.61
2022-10-25T18:56:23.791Z,97.46
2022-10-25T18:58:28.239Z,97.26
2022-10-25T19:00:31.489Z,98.14
2022-10-25T19:02:37.809Z,98.05
2022-10-25T19:04:44.452Z,97.72
2022-10-25T19:06:47.716Z,98.29
2022-10-25T19:08:50.769Z,98.00
2022-10-25T19:10:53.786Z,98.69
2022-10-25T19:12:56.767Z,98.75
2022-10-25T19:15:02.977Z,98.66
2022-10-25T19:17:06.069Z,97.71
2022-10-25T19:19:11.681Z,98.78
2022-10-25T19:21:17.090Z,98.02
2022-10-25T19:23:20.113Z,97.63
2022-10-25T19:25:24.025Z,98.86
2022-10-25T19:27:28.971Z,98.82
2022-10-25T19:29:33.290Z,98.32
2022-10-25T19:31:37.859Z,97.63
2022-10-25T19:33:41.207Z,97.27
2022-10-25T19:35:44.269Z,97.46
2022-10-25T19:37:48.030Z,97.30
2022-10-25T19:39:54.398Z,97.32
2022-10-25T19:42:00.281Z,98.03
2022-10-25T19:44:03.332Z,97.86
2022-10-25T19:46:07.880Z,97.52
2022-10-25T19:48:12.471Z,97.20
2022-10-25T19:50:15.520Z,97.88
2022-10-25T19:52:18.617Z,97.39
2022-10-25T19:54:22.743Z,97.56
2022-10-25T19:56:25.814Z,97.80
2022-10-25T19:58:29.496Z,97.95
2022-10-25T20:00:32.887Z,98.42
2022-10-25T20:02:36.205Z,97.18
2022-10-25T20:04:40.989Z,98.03
2022-10-25T20:06:44.232Z,98.34
2022-10-25T20:08:48.065Z,98.76
2022-10-25T20:10:52.121Z,97.61
2022-10-25T20:12:55.442Z,98.24
2022-10-25T20:14:58.765Z,98.38
2022-10-25T20:17:02.033Z,98.39
2022-10-25T20:19:05.439Z,98.63
2022-10-25T20:21:11.739Z,98.48
2022-10-25T20:23:14.925Z,98.24
2022-10-25T20:25:18.211Z,98.29
2022-10-25T20:27:21.277Z,98.54
2022-10-25T20:29:26.246Z,98.82
2022-10-25T20:31:33.072Z,98.77
2022-10-25T20:33:47.180Z,99.33
2022-10-25T20:36:06.875Z,98.60
2022-10-25T20:38:17.854Z,98.89
2022-10-25T20:40:26.143Z,98.90
2022-10-25T20:42:29.154Z,99.02
2022-10-25T20:44:32.191Z,99.01
2022-10-25T20:46:36.253Z,99.34
2022-10-25T20:48:39.280Z,98.93
2022-10-25T20:50:46.060Z,99.05
2022-10-25T20:53:09.206Z,99.29
2022-10-25T20:55:14.231Z,99.12
2022-10-25T20:57:17.238Z,99.18
2022-10-25T20:59:20.329Z,99.49
2022-10-25T21:01:23.440Z,98.75
2022-10-25T21:03:27.754Z,99.06
2022-10-25T21:05:31.509Z,98.89
2022-10-25T21:07:34.662Z,99.02
2022-10-25T21:09:37.708Z,98.29
2022-10-25T21:11:42.123Z,98.99
2022-10-25T21:13:45.232Z,98.98
2022-10-25T21:15:48.494Z,98.82
2022-10-25T21:17:51.683Z,98.50
2022-10-25T21:19:54.925Z,99.00
2022-10-25T21:21:58.134Z,98.14
2022-10-25T21:24:02.632Z,98.89
2022-10-25T21:26:07.675Z,98.35
2022-10-25T21:28:12.360Z,97.87
2022-10-25T21:30:15.797Z,98.16
2022-10-25T21:32:19.508Z,98.56
2022-10-25T21:34:22.534Z,99.71
2022-10-25T21:36:25.584Z,98.32
2022-10-25T21:38:28.533Z,99.38
2022-10-25T21:40:31.603Z,98.41
2022-10-25T21:42:34.868Z,99.19
2022-10-25T21:44:39.224Z,98.40
2022-10-25T21:46:42.632Z,98.96
2022-10-25T21:48:47.232Z,98.69
2022-10-25T21:50:55.042Z,99.38
2022-10-25T21:52:58.165Z,99.07
2022-10-25T21:55:01.363Z,99.05
2022-10-25T21:57:04.456Z,98.21
2022-10-25T21:59:07.728Z,99.04
2022-10-25T22:01:13.499Z,98.72
2022-10-25T22:03:16.788Z,98.35
2022-10-25T22:05:19.924Z,98.44
2022-10-25T22:07:23.391Z,98.49
2022-10-25T22:09:26.544Z,98.58
2022-10-25T22:11:31.967Z,99.54
2022-10-25T22:13:35.289Z,99.40
2022-10-25T22:15:38.306Z,99.08
2022-10-25T22:17:42.732Z,99.41
2022-10-25T22:19:45.690Z,98.71
2022-10-25T22:21:50.506Z,98.98
2022-10-25T22:23:53.666Z,99.09
2022-10-25T22:26:00.828Z,99.71
2022-10-25T22:28:03.860Z,99.84
2022-10-25T22:30:07.946Z,99.28
2022-10-25T22:32:10.892Z,99.49
2022-10-25T22:34:16.424Z,99.18
2022-10-25T22:36:21.595Z,99.56
2022-10-25T22:38:25.100Z,99.97
2022-10-25T22:40:28.124Z,100.00
2022-10-25T22:42:31.093Z,100.00
2022-10-25T22:44:34.067Z,100.00
2022-10-25T22:46:37.555Z,100.00
2022-10-25T22:48:42.220Z,100.00
2022-10-25T22:50:50.728Z,100.00
2022-10-25T22:52:53.802Z,100.00
2022-10-25T22:54:56.792Z,100.00
2022-10-25T22:56:59.819Z,100.00
2022-10-25T22:59:05.350Z,100.00
2022-10-25T23:01:10.403Z,100.00
2022-10-25T23:03:13.578Z,100.00
2022-10-25T23:05:16.732Z,100.00
2022-10-25T23:07:21.154Z,100.00
2022-10-25T23:09:24.222Z,100.00
2022-10-25T23:11:28.998Z,100.00
2022-10-25T23:13:32.959Z,100.00
2022-10-25T23:15:35.938Z,100.00
2022-10-25T23:17:39.011Z,100.00
2022-10-25T23:19:41.984Z,100.00
2022-10-25T23:21:45.090Z,100.00
2022-10-25T23:23:49.456Z,100.00
2022-10-25T23:25:52.965Z,100.00
2022-10-25T23:27:56.145Z,100.00
2022-10-25T23:29:59.137Z,100.00
2022-10-25T23:32:02.190Z,100.00
2022-10-25T23:34:05.167Z,100.00
2022-10-25T23:36:10.167Z,100.00
2022-10-25T23:38:13.677Z,100.00
2022-10-25T23:40:18.049Z,100.00
2022-10-25T23:42:21.155Z,100.00
2022-10-25T23:44:24.595Z,100.00
2022-10-25T23:46:27.628Z,100.00
2022-10-25T23:48:30.862Z,100.00
2022-10-25T23:50:33.972Z,100.00
2022-10-25T23:52:37.084Z,100.00
2022-10-25T23:54:40.041Z,100.00
2022-10-25T23:56:44.347Z,100.00
2022-10-25T23:58:50.365Z,100.00
